マカオ の空港の天気 - METARとTAF

マカオ国際空港 ( VMMC / MFM ) - マカオ タイパ島
飛行場実況気象(Metar)
観測時間07/15 18:30 CST (07/15 10:30 UTC)
風向・風速南南西 7m/s
視程10km以上
天気現象
少しの雲 雲底高度 910m
気温30℃
湿度79%
気圧1004hPa
METARVMMC 151030Z 21014KT 9999 FEW030 30/26 Q1004 NOSIG
過去の天気等 Google飛行場航空写真 Wunderground天気予報

過去48時間のMETAR

飛行場予報(TAF)
発表時間: 7/15 13:00 CST (7/15 05:00 UTC)
予報対象時間: 15日14時 CST ~ 16日20時 CST
風向・風速南南西 7m/s
視程10km以上
少しの雲 雲底高度 910m
TAF VMMC 150500Z 1506/1612 20014KT 9999 FEW030